Time;durP1;ratioP1;P1;durP2;ratioP2;P2;SDS_P1;SDS_P2;PMS_P1;PMS_P2;Temp;Humidity;BMP_temperature;BMP_pressure;BME280_temperature;BME280_humidity;BME280_pressure;Samples;Min_cycle;Max_cycle;Signal;HPM_P1;HPM_P2
2023/02/20 00:01:51;;;;;;;3.70;0.90;;;;;;;1.26;57.25;99851.71;105201;1260;74786;-57
2023/02/20 00:04:20;;;;;;;4.30;0.60;;;;;;;1.30;57.01;99856.56;105417;1257;69979;-57
2023/02/20 00:06:49;;;;;;;1.60;0.60;;;;;;;1.38;56.92;99858.95;105282;1260;72187;-55
2023/02/20 00:09:17;;;;;;;2.00;0.50;;;;;;;1.47;56.67;99860.73;105208;1259;61049;-56
2023/02/20 00:11:49;;;;;;;4.50;1.70;;;;;;;1.55;56.41;99862.39;104991;1258;61323;-55
2023/02/20 00:14:22;;;;;;;4.20;0.90;;;;;;;1.60;56.23;99865.27;105044;1260;75276;-57
2023/02/20 00:16:50;;;;;;;3.50;1.50;;;;;;;1.59;56.24;99868.60;105328;1257;71231;-56
2023/02/20 00:19:19;;;;;;;4.50;1.40;;;;;;;1.55;56.12;99865.16;105190;1260;73664;-55
2023/02/20 00:21:49;;;;;;;2.10;0.70;;;;;;;1.52;56.18;99868.45;105164;1257;60472;-56
2023/02/20 00:24:17;;;;;;;3.30;0.90;;;;;;;1.47;56.21;99864.69;105250;1257;61387;-56
2023/02/20 00:26:51;;;;;;;4.80;0.90;;;;;;;1.42;56.30;99860.48;105556;1260;74840;-56
2023/02/20 00:29:23;;;;;;;2.60;0.50;;;;;;;1.38;56.38;99857.57;105263;1260;61465;-55
2023/02/20 00:31:56;;;;;;;3.50;0.90;;;;;;;1.27;56.72;99856.22;105560;1258;73663;-56
2023/02/20 00:34:27;;;;;;;2.90;1.00;;;;;;;1.21;56.82;99857.19;105417;1258;60558;-56
2023/02/20 00:36:59;;;;;;;2.70;0.60;;;;;;;1.17;56.82;99863.96;105518;1258;60531;-56
2023/02/20 00:39:28;;;;;;;3.00;0.60;;;;;;;1.13;56.77;99860.85;105340;1260;74767;-56
2023/02/20 00:41:57;;;;;;;3.60;0.60;;;;;;;1.12;56.79;99857.13;104708;1260;70298;-56
2023/02/20 00:44:26;;;;;;;3.80;2.00;;;;;;;1.10;56.77;99853.92;105272;1258;73746;-55
2023/02/20 00:46:54;;;;;;;2.20;0.60;;;;;;;1.07;56.74;99856.99;104936;1258;60511;-56
2023/02/20 00:49:22;;;;;;;2.40;0.40;;;;;;;1.06;56.85;99855.32;105242;1258;61098;-55
2023/02/20 00:51:52;;;;;;;1.50;0.60;;;;;;;1.04;56.88;99856.66;105260;1257;74752;-54
2023/02/20 00:54:20;;;;;;;3.40;0.70;;;;;;;1.02;56.97;99859.85;105038;1257;71295;-55
2023/02/20 00:56:49;;;;;;;4.00;1.10;;;;;;;1.00;57.02;99853.53;105261;1257;73589;-55
2023/02/20 00:59:17;;;;;;;3.30;0.90;;;;;;;0.98;56.89;99856.25;105099;1258;60611;-55
2023/02/20 01:02:05;;;;;;;5.20;1.10;;;;;;;0.96;57.08;99854.80;105066;1261;60441;-55
2023/02/20 01:04:36;;;;;;;7.00;1.40;;;;;;;0.93;57.07;99857.49;105237;1260;74833;-56
2023/02/20 01:07:05;;;;;;;5.90;1.60;;;;;;;0.91;57.07;99863.11;105338;1261;71304;-55
2023/02/20 01:09:33;;;;;;;5.80;1.40;;;;;;;0.89;57.01;99861.99;105676;1258;73889;-55
2023/02/20 01:12:02;;;;;;;3.60;0.90;;;;;;;0.89;57.12;99866.33;105122;1258;60567;-56
2023/02/20 01:14:30;;;;;;;3.60;1.00;;;;;;;0.89;57.06;99863.06;105135;1257;61314;-56
2023/02/20 01:17:07;;;;;;;4.10;1.90;;;;;;;0.89;57.06;99866.36;105214;1257;66188;-56
2023/02/20 01:19:37;;;;;;;4.80;1.50;;;;;;;0.88;56.95;99866.39;105174;1261;70419;-56
2023/02/20 01:22:07;;;;;;;3.70;1.30;;;;;;;0.86;57.09;99867.68;105099;1262;72734;-56
2023/02/20 01:24:35;;;;;;;3.90;0.70;;;;;;;0.85;57.03;99866.89;105164;1257;60567;-56
2023/02/20 01:27:05;;;;;;;2.30;0.50;;;;;;;0.84;57.01;99862.63;105406;1259;61382;-55
2023/02/20 01:29:33;;;;;;;2.40;0.80;;;;;;;0.85;57.03;99860.85;105170;1260;74809;-57
2023/02/20 01:32:01;;;;;;;3.50;0.80;;;;;;;0.85;57.05;99862.05;105145;1257;71292;-55
2023/02/20 01:34:34;;;;;;;1.80;0.50;;;;;;;0.94;56.89;99863.70;105150;1260;73950;-56
2023/02/20 01:37:03;;;;;;;2.00;0.50;;;;;;;1.03;56.49;99864.80;105394;1259;62212;-56
2023/02/20 01:39:31;;;;;;;2.00;0.30;;;;;;;1.09;56.35;99866.74;105113;1261;61011;-57
2023/02/20 01:42:01;;;;;;;2.50;0.50;;;;;;;1.12;56.23;99868.35;105139;1257;75033;-57
2023/02/20 01:44:31;;;;;;;3.90;1.00;;;;;;;1.15;56.16;99871.48;105268;1262;71343;-56
2023/02/20 01:47:04;;;;;;;4.90;0.90;;;;;;;1.11;56.03;99872.01;105223;1263;72622;-56
2023/02/20 01:49:45;;;;;;;2.10;0.60;;;;;;;1.05;56.19;99866.60;105274;1258;60644;-56
2023/02/20 01:52:24;;;;;;;3.10;1.00;;;;;;;1.02;56.07;99869.85;105292;1257;60833;-56
2023/02/20 01:55:04;;;;;;;1.40;0.60;;;;;;;0.99;56.10;99869.13;105262;1257;66232;-56
2023/02/20 01:57:34;;;;;;;2.80;0.30;;;;;;;0.97;56.06;99868.58;105311;1258;62822;-56
2023/02/20 02:00:11;;;;;;;3.00;1.20;;;;;;;0.94;56.00;99878.20;105232;1264;71365;-56
2023/02/20 02:02:45;;;;;;;2.60;0.70;;;;;;;0.91;55.96;99875.56;106376;1257;60461;-56
2023/02/20 02:05:13;;;;;;;4.00;2.40;;;;;;;0.90;55.91;99872.84;105280;1260;60462;-56
2023/02/20 02:07:43;;;;;;;4.10;2.00;;;;;;;0.88;55.90;99872.95;105482;1258;73835;-56
2023/02/20 02:10:13;;;;;;;4.10;1.00;;;;;;;0.87;55.78;99872.48;105332;1258;70982;-57
2023/02/20 02:12:43;;;;;;;1.70;0.40;;;;;;;0.86;55.80;99878.21;105329;1257;73653;-57
2023/02/20 02:15:13;;;;;;;2.90;0.70;;;;;;;0.84;55.81;99881.27;104693;1259;455336;-55
2023/02/20 02:19:48;;;;;;;2.60;1.10;;;;;;;0.68;56.17;99870.11;102330;1292;599627;-57
2023/02/20 02:22:41;;;;;;;3.00;0.50;;;;;;;0.82;55.66;99867.55;104540;1266;59373;-56
2023/02/20 02:25:22;;;;;;;2.20;0.50;;;;;;;0.81;55.53;99870.19;104758;1266;59311;-56
2023/02/20 02:28:03;;;;;;;4.20;0.60;;;;;;;0.76;55.64;99871.61;104586;1267;64571;-57
2023/02/20 02:30:50;;;;;;;4.40;0.90;;;;;;;0.72;55.64;99871.98;105086;1266;62372;-56
2023/02/20 02:33:48;;;;;;;2.20;0.40;;;;;;;0.69;55.69;99875.23;105470;1266;188273;-56
2023/02/20 02:36:22;;;;;;;2.30;0.50;;;;;;;0.66;55.58;99872.80;104492;1263;59265;-56
2023/02/20 02:38:56;;;;;;;3.30;1.10;;;;;;;0.64;55.63;99873.40;104746;1264;61263;-56
2023/02/20 02:41:34;;;;;;;3.40;0.90;;;;;;;0.63;55.44;99880.37;104682;1263;72131;-56
2023/02/20 02:44:13;;;;;;;2.00;0.40;;;;;;;0.62;55.34;99878.55;104874;1262;62870;-58
2023/02/20 02:47:05;;;;;;;1.80;0.40;;;;;;;0.63;55.18;99876.74;104862;1266;72639;-54
2023/02/20 02:49:52;;;;;;;2.10;0.40;;;;;;;0.62;55.13;99875.89;104917;1264;61579;-55
2023/02/20 02:55:10;;;;;;;3.70;0.50;;;;;;;0.58;55.05;99873.54;104519;1263;65364;-56
2023/02/20 02:57:38;;;;;;;3.30;0.60;;;;;;;0.55;55.13;99870.37;104631;1264;71313;-55
2023/02/20 03:00:10;;;;;;;2.50;0.60;;;;;;;0.52;55.17;99875.48;104670;1264;73667;-55
2023/02/20 03:02:59;;;;;;;4.70;0.90;;;;;;;0.49;55.16;99871.17;104674;1263;61356;-55
2023/02/20 03:05:39;;;;;;;2.70;0.80;;;;;;;0.48;55.13;99877.79;104902;1262;59782;-55
2023/02/20 03:08:13;;;;;;;4.40;1.20;;;;;;;0.47;55.02;99880.59;104740;1264;73015;-55
2023/02/20 03:10:42;;;;;;;8.20;4.10;;;;;;;0.47;55.07;99877.80;104768;1265;70625;-54
2023/02/20 03:13:13;;;;;;;9.40;3.60;;;;;;;0.46;54.95;99877.16;104814;1265;73471;-56
2023/02/20 03:15:48;;;;;;;8.30;3.70;;;;;;;0.45;54.95;99883.94;104775;1260;60588;-54
2023/02/20 03:18:24;;;;;;;4.40;0.80;;;;;;;0.47;54.84;99880.05;105026;1260;61227;-54
2023/02/20 03:21:03;;;;;;;;;;;;;;;0.46;54.76;99877.70;105020;1260;73927;-54
2023/02/20 03:23:33;;;;;;;2.90;0.60;;;;;;;0.44;54.71;99876.25;105072;1259;73209;-54
2023/02/20 03:26:04;;;;;;;3.30;1.10;;;;;;;0.42;54.67;99886.66;104900;1265;73791;-54
2023/02/20 03:28:37;;;;;;;4.10;0.60;;;;;;;0.42;54.64;99873.92;104815;1260;60231;-54
2023/02/20 03:31:15;;;;;;;2.00;0.40;;;;;;;0.41;54.71;99871.89;104824;1259;60988;-55
2023/02/20 03:45:18;;;;;;;3.30;1.00;;;;;;;0.35;54.59;99872.67;104680;1261;59705;-55
2023/02/20 03:47:51;;;;;;;3.50;0.50;;;;;;;0.32;54.70;99875.55;105115;1259;72738;-55
2023/02/20 03:50:21;;;;;;;3.00;0.70;;;;;;;0.30;54.59;99876.54;105095;1263;71154;-56
2023/02/20 03:52:50;;;;;;;2.60;0.40;;;;;;;0.28;54.46;99874.17;104752;1260;73896;-55
2023/02/20 03:55:19;;;;;;;2.70;0.70;;;;;;;0.27;54.39;99871.83;104772;1260;60401;-56
2023/02/20 03:57:49;;;;;;;5.60;0.60;;;;;;;0.27;54.39;99869.40;104867;1260;61320;-56
2023/02/20 04:00:19;;;;;;;2.70;1.00;;;;;;;0.27;54.40;99869.41;104722;1265;74126;-56
2023/02/20 04:02:53;;;;;;;1.50;0.20;;;;;;;0.26;54.44;99857.23;105502;1259;71876;-56
2023/02/20 04:05:25;;;;;;;4.40;0.60;;;;;;;0.23;54.46;99857.70;105346;1260;73671;-56
2023/02/20 04:08:02;;;;;;;2.40;0.60;;;;;;;0.23;54.36;99860.11;105093;1267;59761;-56
2023/02/20 04:10:35;;;;;;;2.20;0.50;;;;;;;0.23;54.37;99854.27;104900;1259;59708;-55
2023/02/20 04:13:04;;;;;;;2.80;0.40;;;;;;;0.22;54.29;99849.98;104993;1267;73879;-55
2023/02/20 04:15:32;;;;;;;2.30;0.50;;;;;;;0.20;54.25;99862.13;104923;1263;71667;-56
2023/02/20 04:18:04;;;;;;;3.40;0.70;;;;;;;0.17;54.14;99855.90;105045;1265;73317;-57
2023/02/20 04:20:35;;;;;;;3.30;1.40;;;;;;;0.14;54.27;99855.36;104625;1260;60591;-55
2023/02/20 04:23:16;;;;;;;2.20;0.50;;;;;;;0.10;54.35;99852.23;105004;1260;60257;-55
2023/02/20 04:26:15;;;;;;;2.30;0.60;;;;;;;0.08;54.43;99852.14;104802;1259;73786;-55
2023/02/20 04:28:45;;;;;;;1.80;0.50;;;;;;;0.07;54.43;99854.30;105220;1259;62759;-56
2023/02/20 04:31:14;;;;;;;3.50;0.70;;;;;;;0.05;54.46;99854.55;104869;1260;73496;-57
2023/02/20 04:33:43;;;;;;;2.90;0.40;;;;;;;0.11;54.44;99849.60;104948;1267;59629;-56
2023/02/20 04:36:15;;;;;;;1.20;0.30;;;;;;;0.10;54.39;99851.92;104805;1260;61132;-57
2023/02/20 04:38:44;;;;;;;2.80;0.50;;;;;;;0.12;54.22;99855.08;104909;1260;72881;-57
2023/02/20 04:41:14;;;;;;;1.60;0.30;;;;;;;0.13;54.25;99858.13;105249;1264;70095;-57
2023/02/20 04:43:43;;;;;;;1.80;0.50;;;;;;;0.13;54.28;99856.23;104859;1259;73833;-56
2023/02/20 04:46:15;;;;;;;2.00;0.60;;;;;;;0.14;54.38;99849.33;104810;1263;59626;-56
2023/02/20 04:48:45;;;;;;;3.30;0.40;;;;;;;0.13;54.37;99854.66;105292;1260;60038;-56
2023/02/20 04:51:15;;;;;;;2.60;0.60;;;;;;;0.12;54.46;99853.56;106981;1259;73941;-56
2023/02/20 04:53:43;;;;;;;7.10;0.50;;;;;;;0.13;54.43;99865.05;104979;1265;71188;-57
2023/02/20 04:56:13;;;;;;;2.60;0.60;;;;;;;0.11;54.51;99861.52;104905;1263;72971;-54
2023/02/20 04:58:45;;;;;;;1.80;0.50;;;;;;;0.11;54.54;99856.69;104918;1261;60214;-55
2023/02/20 05:01:18;;;;;;;4.90;1.40;;;;;;;0.11;54.56;99863.08;105005;1261;61007;-55
2023/02/20 05:03:46;;;;;;;3.70;0.40;;;;;;;0.05;54.72;99867.48;104998;1263;74066;-56
2023/02/20 05:06:14;;;;;;;4.00;1.30;;;;;;;0.07;54.81;99865.65;104787;1259;71256;-53
2023/02/20 05:08:45;;;;;;;14.00;1.30;;;;;;;0.05;54.72;99870.25;105049;1263;73845;-53
2023/02/20 05:11:13;;;;;;;5.40;1.70;;;;;;;-0.03;55.03;99875.07;104760;1261;59969;-56
2023/02/20 05:13:42;;;;;;;6.00;2.10;;;;;;;-0.06;55.10;99885.52;104938;1259;61344;-54
2023/02/20 05:16:12;;;;;;;5.00;1.40;;;;;;;-0.05;55.18;99885.17;104887;1265;74012;-56
2023/02/20 05:18:42;;;;;;;8.10;3.30;;;;;;;-0.07;55.17;99891.27;105205;1262;71493;-56
2023/02/20 05:24:01;;;;;;;5.50;1.40;;;;;;;-0.05;55.35;99892.23;104771;1260;59632;-54
2023/02/20 05:26:32;;;;;;;3.80;1.10;;;;;;;-0.04;55.18;99893.73;104725;1261;60373;-55
2023/02/20 05:29:01;;;;;;;4.30;1.00;;;;;;;0.07;55.08;99883.59;108812;1259;73992;-55
2023/02/20 05:31:29;;;;;;;2.30;0.20;;;;;;;0.12;55.14;99888.01;108691;1259;71666;-55
2023/02/20 05:33:57;;;;;;;4.50;1.20;;;;;;;0.15;54.94;99892.70;108788;1261;73835;-56
2023/02/20 05:36:25;;;;;;;2.20;0.60;;;;;;;0.17;54.80;99888.83;108695;1259;60854;-55
2023/02/20 05:38:54;;;;;;;2.40;0.60;;;;;;;0.22;54.77;99887.75;106912;1260;61348;-55
2023/02/20 05:41:22;;;;;;;3.00;0.80;;;;;;;0.26;54.63;99881.55;104872;1264;74018;-55
2023/02/20 05:43:56;;;;;;;7.70;2.50;;;;;;;0.32;54.50;99879.89;105115;1263;71288;-56
2023/02/20 05:46:25;;;;;;;1.10;0.60;;;;;;;0.34;54.41;99878.59;104870;1265;73633;-55
2023/02/20 05:48:53;;;;;;;4.10;0.70;;;;;;;0.33;54.26;99883.62;104882;1263;61571;-56
2023/02/20 05:51:27;;;;;;;2.80;0.70;;;;;;;0.33;54.25;99875.86;106191;1263;60339;-55
2023/02/20 05:57:17;;;;;;;1.90;0.60;;;;;;;0.32;54.31;99875.89;102119;1295;601031;-63
2023/02/20 05:59:48;;;;;;;1.50;0.40;;;;;;;0.50;53.71;99876.78;108388;1267;60455;-62
2023/02/20 06:02:16;;;;;;;2.20;0.60;;;;;;;0.55;53.66;99874.48;108399;1267;61551;-62
2023/02/20 06:04:48;;;;;;;3.70;0.60;;;;;;;0.60;53.57;99880.86;108478;1266;73108;-62
2023/02/20 06:07:16;;;;;;;5.70;0.60;;;;;;;0.65;53.46;99881.33;108537;1267;70268;-62
2023/02/20 06:09:44;;;;;;;3.60;0.40;;;;;;;0.68;53.15;99886.66;108335;1266;192092;-62
2023/02/20 06:12:13;;;;;;;2.80;0.50;;;;;;;0.73;53.02;99884.20;108549;1263;59292;-63
2023/02/20 06:14:42;;;;;;;2.60;0.40;;;;;;;0.79;52.88;99889.45;108695;1263;61041;-63
2023/02/20 06:17:10;;;;;;;5.00;1.00;;;;;;;0.85;52.71;99890.69;108605;1266;72022;-65
2023/02/20 06:19:39;;;;;;;1.40;0.60;;;;;;;0.94;52.49;99893.39;108685;1263;71420;-62
2023/02/20 06:22:08;;;;;;;2.30;0.40;;;;;;;1.01;52.00;99891.66;108721;1263;72667;-62
2023/02/20 06:24:36;;;;;;;2.50;0.50;;;;;;;1.05;51.87;99892.85;107249;1265;60412;-62
2023/02/20 06:27:05;;;;;;;2.50;0.50;;;;;;;1.10;51.60;99911.77;104757;1264;60405;-63
2023/02/20 06:29:33;;;;;;;3.20;0.30;;;;;;;1.12;51.37;99899.12;104736;1268;74335;-62
2023/02/20 06:32:04;;;;;;;2.50;0.50;;;;;;;1.14;51.41;99899.35;104985;1266;71284;-61
2023/02/20 06:34:39;;;;;;;2.80;0.70;;;;;;;1.16;51.42;99899.94;104928;1263;76368;-61
2023/02/20 06:37:07;;;;;;;2.20;0.30;;;;;;;1.15;51.14;99911.05;105319;1265;60549;-63
2023/02/20 06:39:36;;;;;;;1.60;0.30;;;;;;;1.18;51.11;99897.44;104853;1264;60303;-62
2023/02/20 06:42:05;;;;;;;2.00;0.80;;;;;;;1.20;51.11;99909.41;104952;1262;72988;-63
2023/02/20 06:44:33;;;;;;;2.60;0.60;;;;;;;1.22;51.11;99901.05;104787;1266;71290;-62
2023/02/20 06:47:07;;;;;;;2.60;0.70;;;;;;;1.25;51.21;99906.91;104845;1269;73658;-62
2023/02/20 06:49:36;;;;;;;1.50;0.30;;;;;;;1.28;51.08;99919.20;105167;1260;60987;-61
2023/02/20 06:52:05;;;;;;;1.50;0.30;;;;;;;1.34;51.00;99912.23;105441;1260;62242;-62
2023/02/20 06:54:34;;;;;;;1.30;0.40;;;;;;;1.36;50.66;99919.89;105987;1260;72744;-63
2023/02/20 06:57:02;;;;;;;1.00;0.20;;;;;;;1.40;50.63;99918.64;105384;1262;71265;-62
2023/02/20 06:59:38;;;;;;;2.80;0.60;;;;;;;1.42;50.45;99911.61;105194;1260;73696;-62
2023/02/20 07:02:10;;;;;;;1.20;0.40;;;;;;;1.45;50.35;99916.48;105316;1260;59663;-63
2023/02/20 07:04:39;;;;;;;2.10;0.60;;;;;;;1.47;50.18;99917.44;105438;1259;61085;-62
2023/02/20 07:07:08;;;;;;;2.20;0.40;;;;;;;1.51;50.02;99913.23;106370;1260;73785;-63
2023/02/20 07:09:38;;;;;;;3.40;0.40;;;;;;;1.56;50.02;99921.48;105405;1267;71335;-62
2023/02/20 07:12:06;;;;;;;4.60;0.60;;;;;;;1.59;49.63;99924.59;105381;1263;74159;-61
2023/02/20 07:14:34;;;;;;;0.50;0.20;;;;;;;1.63;49.49;99921.14;105792;1262;59706;-63
2023/02/20 07:17:03;;;;;;;1.00;0.20;;;;;;;1.67;49.48;99917.98;105430;1257;61456;-63
2023/02/20 07:19:32;;;;;;;4.20;0.30;;;;;;;1.70;49.20;99923.00;105477;1257;73094;-63
2023/02/20 07:22:00;;;;;;;4.00;0.40;;;;;;;1.73;49.12;99922.34;105293;1262;71335;-63
2023/02/20 07:24:31;;;;;;;3.00;0.70;;;;;;;1.76;49.10;99922.00;105271;1257;73466;-63
2023/02/20 07:26:59;;;;;;;1.60;0.50;;;;;;;1.78;48.80;99916.05;105403;1258;60848;-62
2023/02/20 07:29:28;;;;;;;1.50;0.30;;;;;;;1.81;48.86;99916.06;105398;1258;61230;-61
2023/02/20 07:31:56;;;;;;;1.30;0.20;;;;;;;1.87;48.85;99913.70;105426;1258;73669;-61
2023/02/20 07:34:24;;;;;;;3.50;1.00;;;;;;;1.92;48.75;99920.73;105316;1261;71230;-63
2023/02/20 07:36:53;;;;;;;4.50;0.60;;;;;;;1.98;48.80;99918.14;105581;1263;73693;-63
2023/02/20 07:39:21;;;;;;;2.10;0.90;;;;;;;2.01;48.36;99927.80;105218;1263;60590;-62
2023/02/20 07:41:50;;;;;;;2.60;0.30;;;;;;;2.03;47.99;99921.15;105217;1263;61528;-63
2023/02/20 07:44:40;;;;;;;7.40;1.10;;;;;;;2.05;47.99;99905.84;105219;1260;65394;-62
2023/02/20 07:47:08;;;;;;;5.50;0.40;;;;;;;2.09;48.06;99927.08;105406;1262;71270;-62
2023/02/20 07:49:37;;;;;;;4.30;0.70;;;;;;;2.13;47.76;99908.39;105107;1263;72733;-62
2023/02/20 07:52:05;;;;;;;3.00;0.50;;;;;;;2.17;47.47;99906.77;105456;1262;60164;-63
2023/02/20 07:54:33;;;;;;;6.70;0.90;;;;;;;2.21;47.48;99909.48;105175;1257;61333;-62
2023/02/20 17:11:32;;;;;;;8.40;2.50;;;;;;;3.56;60.90;99392.50;102241;1292;600564;-62
2023/02/20 17:16:08;;;;;;;7.20;3.20;;;;;;;3.69;60.72;99384.31;101945;1293;602156;-63
2023/02/20 17:18:40;;;;;;;6.40;2.20;;;;;;;3.87;60.20;99383.31;108548;1264;57254;-63
2023/02/20 17:21:09;;;;;;;6.20;2.50;;;;;;;3.91;60.17;99372.61;105596;1264;59761;-64
2023/02/20 17:23:38;;;;;;;7.10;2.80;;;;;;;3.93;60.18;99366.10;104712;1268;64404;-64
2023/02/20 17:26:09;;;;;;;7.70;3.20;;;;;;;3.93;60.31;99369.86;104848;1264;62636;-63
2023/02/20 17:28:40;;;;;;;6.90;2.90;;;;;;;3.90;60.59;99364.81;104639;1263;182973;-63
2023/02/20 17:31:09;;;;;;;12.50;5.20;;;;;;;3.86;61.00;99363.88;104892;1265;59224;-62
2023/02/20 17:33:39;;;;;;;10.30;5.60;;;;;;;3.81;61.48;99366.00;104856;1263;59221;-62
2023/02/20 17:36:08;;;;;;;6.90;2.60;;;;;;;3.73;62.12;99360.15;104773;1265;64603;-62
2023/02/20 17:38:41;;;;;;;18.60;6.00;;;;;;;3.70;62.59;99355.84;105136;1265;62654;-62
2023/02/20 17:41:09;;;;;;;7.10;2.40;;;;;;;3.71;62.95;99343.27;104926;1262;64889;-63
2023/02/20 17:43:37;;;;;;;9.30;2.70;;;;;;;3.72;63.19;99329.83;104785;1263;59733;-63
2023/02/20 17:46:06;;;;;;;5.10;1.80;;;;;;;3.70;63.62;99320.11;104691;1263;60111;-62
2023/02/20 17:48:34;;;;;;;6.90;2.00;;;;;;;3.68;63.78;99316.59;104810;1265;65110;-63
2023/02/20 17:51:03;;;;;;;4.80;2.00;;;;;;;3.63;64.01;99303.39;104941;1263;62351;-61
2023/02/20 17:53:31;;;;;;;6.30;1.70;;;;;;;3.58;64.53;99292.64;104662;1263;64041;-64
2023/02/20 17:56:00;;;;;;;9.30;4.70;;;;;;;3.51;64.94;99285.66;104817;1262;59731;-62
2023/02/20 17:58:29;;;;;;;6.00;1.70;;;;;;;3.45;65.28;99279.66;104787;1262;59756;-62
2023/02/20 18:00:57;;;;;;;10.50;5.00;;;;;;;3.46;65.45;99278.58;104735;1262;65402;-64
2023/02/20 18:03:26;;;;;;;6.50;1.70;;;;;;;3.48;65.57;99274.77;104740;1263;62827;-63
2023/02/20 18:05:56;;;;;;;6.40;1.90;;;;;;;3.47;65.65;99270.46;105104;1265;64897;-64
2023/02/20 18:08:26;;;;;;;8.30;3.60;;;;;;;3.47;65.95;99263.39;105134;1262;59654;-62
2023/02/20 18:10:54;;;;;;;6.90;1.70;;;;;;;3.46;66.11;99255.67;104692;1264;59622;-62
2023/02/20 18:13:23;;;;;;;5.40;1.90;;;;;;;3.38;66.41;99248.75;104807;1262;65409;-62
2023/02/20 18:15:51;;;;;;;6.20;1.70;;;;;;;3.23;66.94;99242.64;104742;1263;71321;-62
2023/02/20 18:18:24;;;;;;;5.90;1.60;;;;;;;3.15;67.05;99232.97;105311;1261;63897;-63
2023/02/20 18:20:52;;;;;;;5.20;1.50;;;;;;;3.08;67.41;99231.22;104791;1266;59748;-63
2023/02/20 18:23:21;;;;;;;8.30;2.10;;;;;;;3.08;67.44;99216.82;105031;1262;59713;-62
2023/02/20 18:25:49;;;;;;;4.90;1.60;;;;;;;3.11;67.50;99209.12;104746;1265;65372;-62
2023/02/20 18:28:18;;;;;;;6.40;2.10;;;;;;;3.11;67.69;99196.27;104891;1263;71125;-61
2023/02/20 18:30:46;;;;;;;7.10;4.00;;;;;;;3.08;67.97;99184.59;104758;1265;73659;-62
2023/02/20 18:33:15;;;;;;;6.60;2.40;;;;;;;3.04;68.25;99178.63;105075;1263;59612;-62
2023/02/20 18:35:45;;;;;;;6.30;1.60;;;;;;;2.98;68.42;99163.23;104707;1265;59577;-62
2023/02/20 18:38:29;;;;;;;3.50;1.20;;;;;;;2.94;68.78;99153.81;105175;1263;65188;-63
2023/02/20 18:40:58;;;;;;;4.10;1.40;;;;;;;2.90;68.90;99144.59;104632;1263;62721;-62
2023/02/20 18:43:27;;;;;;;4.00;1.20;;;;;;;2.84;69.05;99137.23;104776;1262;65078;-62
2023/02/20 18:45:55;;;;;;;5.40;1.70;;;;;;;2.83;69.17;99128.63;104772;1263;59715;-61
2023/02/20 18:48:24;;;;;;;7.50;3.20;;;;;;;2.85;69.10;99120.30;104962;1262;59736;-62
2023/02/20 18:50:52;;;;;;;4.40;1.50;;;;;;;2.89;69.20;99118.84;104799;1265;65412;-63
2023/02/20 18:53:20;;;;;;;5.70;1.30;;;;;;;2.86;69.35;99112.66;105015;1266;61716;-62
2023/02/20 18:55:49;;;;;;;5.50;1.30;;;;;;;2.80;69.60;99103.35;104775;1263;73623;-63
2023/02/20 18:58:18;;;;;;;3.60;1.30;;;;;;;2.75;69.76;99091.34;104591;1263;59720;-63
2023/02/20 19:00:47;;;;;;;8.50;4.20;;;;;;;2.69;70.09;99073.60;104972;1262;59634;-64
2023/02/20 19:03:17;;;;;;;3.20;1.10;;;;;;;2.64;70.08;99063.39;104871;1262;64598;-62
2023/02/20 19:05:47;;;;;;;5.00;1.20;;;;;;;2.65;70.10;99056.89;104720;1265;70273;-63
2023/02/20 19:08:18;;;;;;;4.70;1.50;;;;;;;2.70;70.11;99050.66;104664;1263;65619;-63
2023/02/20 19:10:49;;;;;;;2.90;0.90;;;;;;;2.73;70.24;99041.96;105007;1265;61969;-63
2023/02/20 19:13:17;;;;;;;6.30;1.90;;;;;;;2.70;71.12;99023.11;104775;1263;59727;-63
2023/02/20 19:15:46;;;;;;;4.90;1.00;;;;;;;2.64;71.70;99008.70;104781;1265;74136;-64
2023/02/20 19:18:16;;;;;;;4.30;1.40;;;;;;;2.59;71.88;98998.42;104739;1263;61525;-64
2023/02/20 19:20:45;;;;;;;4.20;1.30;;;;;;;2.56;72.09;98984.44;105249;1263;64900;-64
2023/02/20 19:23:14;;;;;;;3.70;1.40;;;;;;;2.54;72.21;98973.73;106465;1262;62298;-63
2023/02/20 19:25:42;;;;;;;2.90;0.80;;;;;;;2.55;72.02;98964.80;105135;1263;59662;-63
2023/02/20 19:28:10;;;;;;;3.40;1.20;;;;;;;2.57;71.93;98951.52;107628;1264;73794;-63
2023/02/20 19:30:39;;;;;;;6.60;2.50;;;;;;;2.59;72.01;98940.41;104779;1263;62662;-64
2023/02/20 19:33:07;;;;;;;2.80;0.70;;;;;;;2.61;72.10;98930.08;104822;1263;64952;-64
2023/02/20 19:52:34;;;;;;;2.30;0.80;;;;;;;2.99;71.29;98870.15;102879;1285;605147;-52
2023/02/20 19:55:04;;;;;;;3.20;1.00;;;;;;;3.36;70.33;98826.11;104248;1273;85786;-51
2023/02/20 19:57:32;;;;;;;4.90;2.20;;;;;;;3.25;70.68;98814.84;104601;1270;59386;-51
2023/02/20 20:00:00;;;;;;;3.20;0.80;;;;;;;3.11;70.88;98817.92;104420;1270;64363;-50
2023/02/20 20:02:39;;;;;;;5.20;1.20;;;;;;;2.95;71.16;98812.31;105243;1259;62561;-51
2023/02/20 20:05:07;;;;;;;3.50;1.00;;;;;;;2.81;71.36;98808.35;105152;1264;63898;-51
2023/02/20 20:07:36;;;;;;;2.50;0.60;;;;;;;2.73;71.65;98803.34;104890;1260;59306;-51
2023/02/20 20:10:09;;;;;;;5.00;2.20;;;;;;;2.68;71.70;98799.04;104878;1263;58396;-51
2023/02/20 20:12:45;;;;;;;3.30;1.00;;;;;;;2.65;71.99;98759.81;105106;1263;64620;-52
2023/02/20 20:15:14;;;;;;;2.70;0.70;;;;;;;2.58;72.24;98707.30;105085;1259;63596;-50
2023/02/20 20:17:51;;;;;;;4.70;1.70;;;;;;;2.50;72.62;98803.30;105186;1264;72493;-51
2023/02/20 20:20:19;;;;;;;2.10;0.70;;;;;;;2.45;73.02;98815.24;105230;1259;59689;-50
2023/02/20 20:22:49;;;;;;;2.60;1.10;;;;;;;2.49;72.80;98773.42;105277;1263;59564;-51
2023/02/20 20:25:17;;;;;;;3.40;1.10;;;;;;;2.49;72.78;98728.05;105270;1260;74014;-51
2023/02/20 20:27:49;;;;;;;3.70;1.10;;;;;;;2.49;72.98;98679.96;104909;1261;71629;-51
2023/02/20 20:30:20;;;;;;;3.10;1.30;;;;;;;2.45;73.13;98743.27;104989;1261;65050;-51
2023/02/20 20:32:49;;;;;;;4.20;1.10;;;;;;;2.38;73.46;98770.09;104913;1260;59587;-51
2023/02/20 20:35:18;;;;;;;3.00;0.90;;;;;;;2.35;73.45;98736.33;105179;1260;60017;-49
2023/02/20 20:37:47;;;;;;;2.90;0.70;;;;;;;2.38;73.35;98726.60;105252;1259;65336;-50
2023/02/20 20:40:15;;;;;;;3.60;1.20;;;;;;;2.46;73.33;98698.73;105159;1258;71204;-51
2023/02/20 20:42:44;;;;;;;5.60;2.10;;;;;;;2.50;73.44;98674.52;105207;1259;64996;-51
2023/02/20 20:45:13;;;;;;;3.40;1.10;;;;;;;2.49;73.46;98647.09;105191;1263;59993;-51
2023/02/20 20:47:43;;;;;;;2.70;0.80;;;;;;;2.46;73.68;98644.36;105058;1258;60330;-51
2023/02/20 20:50:19;;;;;;;4.20;1.10;;;;;;;2.44;73.74;98655.61;105093;1259;74500;-52
2023/02/20 20:52:48;;;;;;;2.40;0.90;;;;;;;2.46;73.74;98675.70;105051;1260;62546;-51
2023/02/20 20:55:16;;;;;;;1.90;0.60;;;;;;;2.50;73.46;98666.20;104942;1261;73409;-50
2023/02/20 20:57:45;;;;;;;2.60;0.90;;;;;;;2.53;73.49;98650.57;105019;1261;59779;-51
2023/02/20 21:00:19;;;;;;;2.70;0.80;;;;;;;2.58;73.46;98642.07;104966;1260;61087;-50
2023/02/20 21:02:47;;;;;;;2.40;0.60;;;;;;;2.57;73.54;98629.84;105014;1261;65315;-51
2023/02/20 21:05:17;;;;;;;2.80;0.80;;;;;;;2.54;73.62;98624.23;104958;1263;62524;-50
2023/02/20 21:07:47;;;;;;;4.00;1.50;;;;;;;2.51;73.86;98619.59;104937;1261;65100;-50
2023/02/20 21:10:16;;;;;;;3.10;0.90;;;;;;;2.53;73.81;98613.56;104982;1259;59741;-50
2023/02/20 21:12:44;;;;;;;1.60;0.70;;;;;;;2.61;73.66;98611.39;104987;1261;60337;-51
2023/02/20 21:15:13;;;;;;;2.90;0.60;;;;;;;2.66;73.74;98598.05;104993;1261;65419;-52
2023/02/20 21:17:43;;;;;;;2.50;0.80;;;;;;;2.70;73.75;98589.20;105059;1259;62588;-52
2023/02/20 21:20:16;;;;;;;2.50;0.90;;;;;;;2.70;73.73;98600.46;104937;1263;73447;-51
2023/02/20 21:22:46;;;;;;;3.20;1.00;;;;;;;2.67;73.83;98596.02;105013;1260;59750;-50
2023/02/20 21:25:18;;;;;;;4.90;2.10;;;;;;;2.62;73.78;98591.55;104999;1262;59751;-50
2023/02/20 21:27:48;;;;;;;3.10;0.80;;;;;;;2.61;73.80;98578.48;105079;1263;65201;-51
2023/02/20 21:30:17;;;;;;;3.50;0.90;;;;;;;2.66;73.93;98572.60;105073;1264;61448;-51
2023/02/20 21:32:46;;;;;;;3.50;0.80;;;;;;;2.72;74.01;98578.36;105028;1259;64766;-52
2023/02/20 21:35:15;;;;;;;3.80;0.90;;;;;;;2.75;73.95;98577.75;104998;1259;60827;-52
2023/02/20 21:37:43;;;;;;;3.30;0.80;;;;;;;2.76;74.13;98562.44;105171;1259;59792;-53
2023/02/20 21:40:11;;;;;;;4.10;1.40;;;;;;;2.72;74.24;98571.06;104907;1262;73053;-52
2023/02/20 21:45:28;;;;;;;2.90;1.10;;;;;;;2.68;74.54;98559.41;104896;1263;65154;-53
2023/02/20 21:47:56;;;;;;;4.90;1.60;;;;;;;2.75;74.36;98548.33;104789;1259;59727;-51
2023/02/20 21:50:25;;;;;;;4.60;2.40;;;;;;;2.82;74.30;98544.20;104940;1259;59769;-51